Time;durP1;ratioP1;P1;durP2;ratioP2;P2;SDS_P1;SDS_P2;PMS_P1;PMS_P2;Temp;Humidity;BMP_temperature;BMP_pressure;BME280_temperature;BME280_humidity;BME280_pressure;Samples;Min_cycle;Max_cycle;Signal;HPM_P1;HPM_P2
2021/12/13 00:01:58;;;;;;;83.10;4.32;;;11.30;38.00;;;;;;5029136;28;20187;-75
2021/12/13 00:04:27;;;;;;;45.22;3.80;;;;;;;;;;5030755;28;20559;-74
2021/12/13 00:07:02;;;;;;;33.90;3.15;;;11.20;36.00;;;;;;5030475;28;20555;-74
2021/12/13 00:09:29;;;;;;;49.63;3.17;;;;;;;;;;5030257;28;20200;-74
2021/12/13 00:11:59;;;;;;;53.42;2.90;;;11.30;36.90;;;;;;5030551;28;20186;-74
2021/12/13 00:14:29;;;;;;;36.38;2.95;;;11.30;37.40;;;;;;5030353;28;20224;-75
2021/12/13 00:17:00;;;;;;;40.67;3.45;;;;;;;;;;5030709;28;20215;-74
2021/12/13 00:19:31;;;;;;;34.83;2.35;;;;;;;;;;5030522;28;20215;-75
2021/12/13 00:22:02;;;;;;;42.95;3.42;;;11.20;36.20;;;;;;5029938;28;20180;-74
2021/12/13 00:24:32;;;;;;;46.70;2.55;;;11.30;35.90;;;;;;5030446;28;20588;-74
2021/12/13 00:27:10;;;;;;;42.35;2.83;;;;;;;;;;5030015;28;20586;-74
2021/12/13 00:29:49;;;;;;;54.70;3.20;;;;;;;;;;5030342;28;20223;-74
2021/12/13 00:32:20;;;;;;;42.92;2.75;;;;;;;;;;5030377;28;20642;-74
2021/12/13 00:34:52;;;;;;;46.03;3.17;;;;;;;;;;5022742;28;20172;-74
2021/12/13 00:37:52;;;;;;;43.45;2.92;;;11.30;35.80;;;;;;5030361;28;20176;-74
2021/12/13 00:40:23;;;;;;;38.83;2.78;;;;;;;;;;5028085;28;20591;-74
2021/12/13 00:42:51;;;;;;;41.95;2.58;;;;;;;;;;5003448;28;20180;-75
2021/12/13 00:45:18;;;;;;;36.78;2.42;;;;;;;;;;5029752;28;20189;-74
2021/12/13 00:47:45;;;;;;;40.72;2.85;;;;;;;;;;5031518;28;20191;-74
2021/12/13 00:50:16;;;;;;;35.92;2.58;;;;;;;;;;5031334;28;20223;-75
2021/12/13 00:52:46;;;;;;;57.92;3.67;;;;;;;;;;5031451;28;20670;-74
2021/12/13 00:55:31;;;;;;;31.08;2.45;;;;;;;;;;5031660;28;20186;-74
2021/12/13 00:58:09;;;;;;;39.63;4.40;;;;;;;;;;5031427;28;20210;-74
2021/12/13 01:00:35;;;;;;;38.72;2.55;;;;;;;;;;5031337;28;20213;-74
2021/12/13 01:03:03;;;;;;;49.67;2.80;;;;;;;;;;5031047;28;20678;-75
2021/12/13 01:05:48;;;;;;;35.83;2.47;;;11.30;37.80;;;;;;5031456;28;20438;-74
2021/12/13 01:08:41;;;;;;;31.05;2.53;;;11.20;38.80;;;;;;5031273;28;20175;-74
2021/12/13 01:11:11;;;;;;;33.08;2.20;;;;;;;;;;5030804;28;20215;-74
2021/12/13 01:13:44;;;;;;;47.33;2.80;;;11.20;38.40;;;;;;5031027;28;20709;-75
2021/12/13 01:16:23;;;;;;;95.30;4.38;;;;;;;;;;5031552;28;20196;-75
2021/12/13 01:19:26;;;;;;;58.17;3.25;;;11.40;37.30;;;;;;5033136;28;20705;-74
2021/12/13 01:22:19;;;;;;;60.45;3.10;;;11.50;36.70;;;;;;5033024;28;20279;-75
2021/12/13 01:27:30;;;;;;;38.30;2.42;;;11.40;38.40;;;;;;5033438;28;20178;-74
2021/12/13 01:29:56;;;;;;;36.75;2.53;;;;;;;;;;5032943;28;20333;-75
2021/12/13 01:32:24;;;;;;;31.90;3.22;;;;;;;;;;5035805;28;20175;-74
2021/12/13 01:34:51;;;;;;;48.78;2.95;;;11.50;36.70;;;;;;5032904;28;20178;-74
2021/12/13 01:37:17;;;;;;;44.70;2.85;;;11.40;37.50;;;;;;5033091;28;20232;-74
2021/12/13 01:39:46;;;;;;;61.88;3.10;;;;;;;;;;5032894;28;20285;-75
2021/12/13 01:42:20;;;;;;;36.85;2.35;;;11.20;38.40;;;;;;5033274;28;20180;-74
2021/12/13 01:44:51;;;;;;;70.15;3.45;;;11.20;37.70;;;;;;5032783;28;20532;-74
2021/12/13 01:47:22;;;;;;;36.85;2.65;;;11.20;37.50;;;;;;5033054;28;20583;-74
2021/12/13 01:49:52;;;;;;;54.47;2.88;;;;;;;;;;5032257;28;20678;-74
2021/12/13 01:52:26;;;;;;;37.03;2.40;;;11.40;39.00;;;;;;5032796;28;20180;-74
2021/12/13 01:54:53;;;;;;;44.50;3.08;;;;;;;;;;5032531;28;20179;-75
2021/12/13 01:57:27;;;;;;;30.95;2.50;;;;;;;;;;5031473;28;20184;-74
2021/12/13 02:00:08;;;;;;;62.75;3.38;;;;;;;;;;5032060;28;20213;-75
2021/12/13 02:02:39;;;;;;;53.90;3.22;;;;;;;;;;5032851;28;20163;-74
2021/12/13 02:05:11;;;;;;;35.47;2.35;;;11.00;45.60;;;;;;5032771;28;20212;-75
2021/12/13 02:07:53;;;;;;;41.95;2.97;;;11.00;46.20;;;;;;5032138;28;20179;-75
2021/12/13 02:10:19;;;;;;;40.80;2.38;;;;;;;;;;5031419;28;20199;-74
2021/12/13 02:12:46;;;;;;;40.58;2.80;;;;;;;;;;5032636;28;20183;-74
2021/12/13 02:17:59;;;;;;;66.85;3.90;;;;;;;;;;5031379;28;20222;-75
2021/12/13 02:20:45;;;;;;;39.75;2.58;;;;;;;;;;5026286;28;20210;-74
2021/12/13 02:23:12;;;;;;;46.90;2.63;;;10.70;49.90;;;;;;5032319;28;20163;-74
2021/12/13 02:25:41;;;;;;;36.05;2.45;;;;;;;;;;5032171;28;20178;-74
2021/12/13 02:28:21;;;;;;;50.92;3.03;;;10.70;50.00;;;;;;5031523;28;20182;-74
2021/12/13 02:31:06;;;;;;;42.30;2.65;;;;;;;;;;5032510;28;20229;-74
2021/12/13 02:33:38;;;;;;;34.63;2.85;;;10.70;50.60;;;;;;5026380;28;20536;-74
2021/12/13 02:36:06;;;;;;;63.60;4.05;;;;;;;;;;5031685;28;20207;-74
2021/12/13 02:38:32;;;;;;;20.55;2.22;;;10.70;51.20;;;;;;5031430;28;20215;-74
2021/12/13 02:41:00;;;;;;;63.30;4.07;;;10.80;51.00;;;;;;5031555;28;20264;-74
2021/12/13 02:43:29;;;;;;;50.30;3.60;;;;;;;;;;5032159;28;20175;-74
2021/12/13 02:45:56;;;;;;;38.53;2.60;;;;;;;;;;5031536;28;20187;-74
2021/12/13 02:48:28;;;;;;;41.95;2.45;;;;;;;;;;5031621;28;20178;-74
2021/12/13 02:51:13;;;;;;;48.90;3.47;;;;;;;;;;5031676;28;20194;-74
2021/12/13 02:53:51;;;;;;;41.55;3.22;;;10.60;51.90;;;;;;5029699;28;20643;-74
2021/12/13 02:56:18;;;;;;;50.90;2.95;;;;;;;;;;5031450;28;20181;-74
2021/12/13 02:58:46;;;;;;;23.35;2.22;;;;;;;;;;5031512;28;20239;-74
2021/12/13 03:01:14;;;;;;;61.55;3.40;;;;;;;;;;5030846;28;20186;-74
2021/12/13 03:03:43;;;;;;;48.92;3.83;;;;;;;;;;5031691;28;20692;-75
2021/12/13 03:06:10;;;;;;;120.65;5.28;;;;;;;;;;5032742;28;20680;-74
2021/12/13 03:08:39;;;;;;;33.58;2.60;;;;;;;;;;5031409;28;20288;-74
2021/12/13 03:11:09;;;;;;;44.22;3.03;;;10.40;52.80;;;;;;5030810;28;20185;-75
2021/12/13 03:13:35;;;;;;;31.55;2.25;;;10.40;53.00;;;;;;5031667;28;20181;-75
2021/12/13 03:16:04;;;;;;;128.45;6.15;;;;;;;;;;5029664;28;20184;-75
2021/12/13 03:18:35;;;;;;;42.65;2.45;;;;;;;;;;5031217;28;20232;-74
2021/12/13 03:21:01;;;;;;;47.83;2.88;;;;;;;;;;5031023;28;20176;-74
2021/12/13 03:23:41;;;;;;;38.72;3.05;;;;;;;;;;5031099;28;20669;-75
2021/12/13 03:26:39;;;;;;;111.53;5.05;;;;;;;;;;5027905;28;20168;-74
2021/12/13 03:29:07;;;;;;;35.08;2.33;;;10.30;54.20;;;;;;5029956;28;20215;-74
2021/12/13 03:31:48;;;;;;;37.35;3.25;;;10.40;53.90;;;;;;5030809;28;20273;-74
2021/12/13 03:34:19;;;;;;;47.03;2.55;;;10.50;53.70;;;;;;5030812;28;20185;-74
2021/12/13 03:37:05;;;;;;;42.13;2.58;;;;;;;;;;5029412;28;20180;-74
2021/12/13 03:39:40;;;;;;;36.35;3.17;;;;;;;;;;5030242;28;20232;-74
2021/12/13 03:42:10;;;;;;;38.03;2.40;;;10.60;53.40;;;;;;5030800;28;20168;-74
2021/12/13 03:44:38;;;;;;;39.72;3.65;;;;;;;;;;5030762;28;20183;-75
2021/12/13 03:47:10;;;;;;;40.15;3.28;;;10.80;52.60;;;;;;5030523;28;20182;-74
2021/12/13 03:49:39;;;;;;;22.33;2.65;;;;;;;;;;5021655;28;20294;-75
2021/12/13 03:52:07;;;;;;;46.30;3.40;;;10.80;52.40;;;;;;5030147;28;20183;-74
2021/12/13 03:54:38;;;;;;;61.78;3.53;;;10.80;52.50;;;;;;5030791;28;20590;-74
2021/12/13 03:57:05;;;;;;;37.30;2.38;;;10.70;52.80;;;;;;5031134;28;20578;-74
2021/12/13 03:59:34;;;;;;;53.72;4.15;;;;;;;;;;5030534;28;20304;-74
2021/12/13 04:02:02;;;;;;;38.20;3.63;;;;;;;;;;5030271;28;20175;-75
2021/12/13 04:04:28;;;;;;;62.63;3.55;;;;;;;;;;5030514;28;20174;-74
2021/12/13 04:07:07;;;;;;;39.80;2.30;;;10.70;53.40;;;;;;5030522;28;20666;-74
2021/12/13 04:09:34;;;;;;;47.42;3.67;;;;;;;;;;5030328;28;20534;-74
2021/12/13 04:12:03;;;;;;;49.83;3.47;;;10.80;53.00;;;;;;5030906;28;20183;-74
2021/12/13 04:14:35;;;;;;;40.70;3.55;;;;;;;;;;5030150;28;20273;-74
2021/12/13 04:17:43;;;;;;;40.55;2.60;;;;;;;;;;5030186;28;20588;-74
2021/12/13 04:20:14;;;;;;;39.45;2.65;;;10.30;54.80;;;;;;5029507;28;20208;-74
2021/12/13 04:22:49;;;;;;;40.03;2.72;;;10.30;55.30;;;;;;5032303;28;20268;-74
2021/12/13 04:25:17;;;;;;;29.65;2.33;;;;;;;;;;5031939;28;20163;-74
2021/12/13 04:27:43;;;;;;;39.30;3.80;;;;;;;;;;5031622;28;20193;-74
2021/12/13 04:30:29;;;;;;;36.07;2.23;;;;;;;;;;5032109;28;20287;-74
2021/12/13 04:32:59;;;;;;;52.65;2.83;;;10.10;57.80;;;;;;5032028;28;20419;-74
2021/12/13 04:35:26;;;;;;;66.82;3.28;;;9.90;59.70;;;;;;5031425;28;20195;-74
2021/12/13 04:37:56;;;;;;;45.50;2.95;;;9.80;60.00;;;;;;5031981;28;20632;-74
2021/12/13 04:40:25;;;;;;;51.65;3.35;;;;;;;;;;5033099;28;20621;-74
2021/12/13 04:43:06;;;;;;;57.47;3.70;;;9.40;63.90;;;;;;5023607;28;20279;-74
2021/12/13 04:45:34;;;;;;;59.85;4.07;;;;;;;;;;5031410;28;20190;-74
2021/12/13 04:48:11;;;;;;;50.22;3.28;;;;;;;;;;5014929;28;20191;-74
2021/12/13 04:50:37;;;;;;;28.83;3.47;;;;;;;;;;5031329;28;20193;-74
2021/12/13 04:53:05;;;;;;;46.77;3.10;;;10.20;56.80;;;;;;5032008;28;20498;-74
2021/12/13 04:55:34;;;;;;;47.25;3.50;;;;;;;;;;5033303;28;20424;-74
2021/12/13 04:58:01;;;;;;;38.28;2.20;;;;;;;;;;5026187;28;20200;-75
2021/12/13 05:00:29;;;;;;;61.35;3.60;;;;;;;;;;5033668;28;20315;-74
2021/12/13 05:02:59;;;;;;;42.65;3.15;;;10.50;54.80;;;;;;5033783;28;20190;-74
2021/12/13 05:05:27;;;;;;;43.47;2.97;;;10.60;54.40;;;;;;5033825;28;20177;-74
2021/12/13 05:07:54;;;;;;;43.08;3.97;;;10.60;53.90;;;;;;5032973;28;20182;-74
2021/12/13 05:10:25;;;;;;;43.13;3.00;;;10.70;53.90;;;;;;5033771;28;20557;-74
2021/12/13 05:12:58;;;;;;;47.45;3.03;;;;;;;;;;5033623;28;20181;-74
2021/12/13 05:15:26;;;;;;;46.00;2.72;;;;;;;;;;5033615;28;20675;-74
2021/12/13 05:17:53;;;;;;;57.70;2.80;;;10.60;53.90;;;;;;5033245;28;20242;-74
2021/12/13 05:20:24;;;;;;;44.10;3.13;;;;;;;;;;5032226;28;20205;-74
2021/12/13 05:22:50;;;;;;;55.33;3.60;;;;;;;;;;5033324;28;20256;-74
2021/12/13 05:25:39;;;;;;;77.80;3.87;;;10.30;56.10;;;;;;5033390;28;20263;-74
2021/12/13 05:28:08;;;;;;;55.25;3.30;;;;;;;;;;5022528;28;20492;-75
2021/12/13 05:30:41;;;;;;;36.80;2.55;;;10.00;57.60;;;;;;5033070;28;20190;-74
2021/12/13 05:33:08;;;;;;;44.90;3.03;;;;;;;;;;5033356;28;20600;-74
2021/12/13 05:35:36;;;;;;;37.72;3.03;;;;;;;;;;5033551;28;20196;-74
2021/12/13 05:38:07;;;;;;;46.67;3.05;;;;;;;;;;5032705;28;20251;-75
2021/12/13 05:40:35;;;;;;;49.63;2.85;;;10.60;54.60;;;;;;5032900;28;20219;-75
2021/12/13 05:43:14;;;;;;;64.40;3.53;;;10.50;55.00;;;;;;5032887;28;20212;-75
2021/12/13 05:45:44;;;;;;;45.00;3.20;;;;;;;;;;5033217;28;20215;-74
2021/12/13 05:48:13;;;;;;;47.22;2.70;;;;;;;;;;5025160;28;20177;-74
2021/12/13 05:50:44;;;;;;;45.08;3.33;;;;;;;;;;5032378;28;20180;-74
2021/12/13 05:53:13;;;;;;;43.80;2.80;;;;;;;;;;5025055;28;20226;-74
2021/12/13 05:56:00;;;;;;;41.20;3.10;;;;;;;;;;5032819;28;20613;-74
2021/12/13 05:58:29;;;;;;;39.20;2.90;;;;;;;;;;5026706;28;20196;-74
2021/12/13 06:00:57;;;;;;;36.08;2.40;;;;;;;;;;5032433;28;20183;-74
2021/12/13 06:03:32;;;;;;;23.15;2.45;;;10.60;54.50;;;;;;5032784;28;20268;-75
2021/12/13 06:06:04;;;;;;;110.70;4.88;;;;;;;;;;5032528;28;20182;-74
2021/12/13 06:08:31;;;;;;;34.50;2.17;;;;;;;;;;5032838;28;20199;-75
2021/12/13 06:11:23;;;;;;;61.03;3.05;;;10.50;54.50;;;;;;5032388;28;20209;-74
2021/12/13 06:13:50;;;;;;;51.05;2.95;;;;;;;;;;5033859;28;20277;-75
2021/12/13 06:16:26;;;;;;;36.35;2.58;;;;;;;;;;5027012;28;20278;-74
2021/12/13 06:18:58;;;;;;;40.92;2.47;;;;;;;;;;5033734;28;20282;-74
2021/12/13 06:21:48;;;;;;;84.30;4.00;;;10.70;54.30;;;;;;5032194;28;20179;-74
2021/12/13 06:24:23;;;;;;;42.97;2.70;;;10.50;55.30;;;;;;5032393;28;20224;-74
2021/12/13 06:26:49;;;;;;;50.22;3.20;;;;;;;;;;5032317;28;20190;-75
2021/12/13 06:29:15;;;;;;;48.08;3.20;;;10.40;56.00;;;;;;5030913;28;20214;-74
2021/12/13 06:31:45;;;;;;;33.77;2.57;;;10.30;56.50;;;;;;5032411;28;20273;-74
2021/12/13 06:34:16;;;;;;;65.82;3.38;;;;;;;;;;5032404;28;20289;-74
2021/12/13 06:36:45;;;;;;;43.67;2.78;;;9.90;59.40;;;;;;5031349;28;20648;-74
2021/12/13 06:39:27;;;;;;;65.10;3.22;;;9.70;61.30;;;;;;5032241;28;20693;-74
2021/12/13 06:42:00;;;;;;;49.80;2.75;;;;;;;;;;5031775;28;20223;-74
2021/12/13 06:44:29;;;;;;;51.67;3.20;;;;;;;;;;5029263;28;20178;-74
2021/12/13 06:47:02;;;;;;;70.47;3.17;;;9.60;63.60;;;;;;5028320;28;20173;-74
2021/12/13 06:49:44;;;;;;;68.93;3.80;;;9.70;62.30;;;;;;5024397;28;20702;-74
2021/12/13 06:52:13;;;;;;;39.78;2.55;;;10.00;60.00;;;;;;5031750;28;20220;-74
2021/12/13 06:54:45;;;;;;;50.72;2.60;;;;;;;;;;5031882;28;20247;-74
2021/12/13 06:57:17;;;;;;;58.05;3.20;;;10.20;56.60;;;;;;5031276;28;20300;-74
2021/12/13 06:59:54;;;;;;;39.95;2.33;;;10.10;57.50;;;;;;5031882;28;20265;-74
2021/12/13 07:02:27;;;;;;;65.30;4.03;;;10.40;56.40;;;;;;5031363;28;20610;-74
2021/12/13 07:05:00;;;;;;;43.85;3.10;;;10.50;55.50;;;;;;5031422;28;20512;-74
2021/12/13 07:07:50;;;;;;;39.95;3.17;;;10.70;54.30;;;;;;5031242;28;20644;-74
2021/12/13 07:10:25;;;;;;;65.15;4.05;;;10.70;54.00;;;;;;5021042;28;20252;-74
2021/12/13 07:13:22;;;;;;;38.70;3.10;;;10.70;53.90;;;;;;5031791;28;20178;-75
2021/12/13 07:15:49;;;;;;;43.30;2.72;;;10.70;54.20;;;;;;5024861;28;20235;-74
2021/12/13 07:18:22;;;;;;;44.10;2.47;;;10.60;54.60;;;;;;5030743;28;20212;-74
2021/12/13 07:20:56;;;;;;;59.33;3.83;;;;;;;;;;5031440;28;20201;-74
2021/12/13 07:23:22;;;;;;;80.00;3.67;;;10.40;55.40;;;;;;5030741;28;20180;-74
2021/12/13 07:25:49;;;;;;;67.50;3.60;;;;;;;;;;5030881;28;20184;-74
2021/12/13 07:28:30;;;;;;;84.57;5.93;;;;;;;;;;5030943;28;20516;-74
2021/12/13 07:30:56;;;;;;;35.90;2.47;;;;;;;;;;5031334;28;20183;-74
2021/12/13 07:33:32;;;;;;;55.10;3.75;;;;;;;;;;5030414;28;20265;-74
2021/12/13 07:35:58;;;;;;;60.05;3.47;;;10.40;55.80;;;;;;5031147;28;20204;-74
2021/12/13 07:38:28;;;;;;;56.60;3.37;;;;;;;;;;5030561;28;20229;-74
2021/12/13 07:41:05;;;;;;;52.72;2.95;;;10.30;57.40;;;;;;5031274;28;20174;-74
2021/12/13 07:43:35;;;;;;;43.08;3.78;;;;;;;;;;5031125;28;20194;-74
2021/12/13 07:46:11;;;;;;;59.40;3.92;;;10.50;55.10;;;;;;5030890;28;20177;-74
2021/12/13 07:48:40;;;;;;;38.83;2.70;;;10.50;55.70;;;;;;5030268;28;20242;-75
2021/12/13 07:51:18;;;;;;;27.00;2.58;;;10.80;55.10;;;;;;5031072;28;20182;-75
2021/12/13 07:53:46;;;;;;;78.75;4.85;;;10.80;54.70;;;;;;5029233;28;20191;-74
2021/12/13 07:56:23;;;;;;;83.43;4.35;;;10.90;54.10;;;;;;5030337;28;20235;-74
2021/12/13 07:58:52;;;;;;;61.53;3.55;;;;;;;;;;5023210;28;20249;-74
2021/12/13 08:01:20;;;;;;;41.58;3.20;;;;;;;;;;5030186;28;20607;-77
2021/12/13 08:03:48;;;;;;;76.13;4.30;;;;;;;;;;5031385;28;20171;-84
2021/12/13 08:06:15;;;;;;;77.80;4.20;;;;;;;;;;5033617;28;20549;-84
2021/12/13 08:08:49;;;;;;;45.35;3.03;;;;;;;;;;5036802;28;20209;-84
2021/12/13 08:11:16;;;;;;;24.85;2.45;;;;;;;;;;5035221;28;20188;-84
2021/12/13 08:13:54;;;;;;;43.55;3.70;;;;;;;;;;5032351;28;20549;-75
2021/12/13 08:16:29;;;;;;;52.88;3.58;;;10.30;60.40;;;;;;5030421;28;20218;-75
2021/12/13 08:19:10;;;;;;;59.15;4.60;;;10.30;60.00;;;;;;5031081;28;20207;-75
2021/12/13 08:21:40;;;;;;;51.25;3.42;;;10.50;59.30;;;;;;5020034;28;20168;-76
2021/12/13 08:24:07;;;;;;;45.13;4.00;;;10.60;58.10;;;;;;5030879;28;20677;-76
2021/12/13 08:26:33;;;;;;;24.00;3.03;;;;;;;;;;5030481;28;20183;-75
2021/12/13 08:29:00;;;;;;;44.77;3.33;;;;;;;;;;5022897;28;20286;-83
2021/12/13 08:31:36;;;;;;;50.63;3.55;;;;;;;;;;5030875;28;20933;-75
2021/12/13 08:34:10;;;;;;;50.65;4.32;;;;;;;;;;5024803;28;20721;-75
2021/12/13 08:36:39;;;;;;;54.67;4.00;;;;;;;;;;5032921;28;20193;-77
2021/12/13 08:39:05;;;;;;;90.05;4.57;;;;;;;;;;5029155;28;20212;-76
2021/12/13 08:41:34;;;;;;;50.33;3.15;;;;;;;;;;5030429;28;20236;-76
2021/12/13 08:44:06;;;;;;;47.45;3.42;;;;;;;;;;5029514;28;20201;-76
2021/12/13 08:46:34;;;;;;;77.00;3.75;;;9.70;65.30;;;;;;5029187;28;20640;-76
2021/12/13 08:49:10;;;;;;;73.03;3.95;;;9.70;66.30;;;;;;5029604;28;20191;-76
2021/12/13 08:51:36;;;;;;;49.10;3.13;;;9.40;69.60;;;;;;5030448;28;20186;-76
2021/12/13 08:54:07;;;;;;;34.90;3.03;;;9.70;67.40;;;;;;5030632;28;20289;-76
2021/12/13 08:56:40;;;;;;;34.25;2.95;;;10.10;62.70;;;;;;5030101;28;20185;-76
2021/12/13 08:59:20;;;;;;;44.42;3.50;;;;;;;;;;5027353;28;20243;-76
2021/12/13 09:01:50;;;;;;;60.08;4.35;;;;;;;;;;5025310;28;20181;-76
2021/12/13 09:04:38;;;;;;;49.47;3.03;;;10.00;64.40;;;;;;5028152;28;20801;-76
2021/12/13 09:07:12;;;;;;;43.75;2.75;;;10.40;62.30;;;;;;5031945;28;20198;-75
2021/12/13 09:09:43;;;;;;;51.92;2.90;;;;;;;;;;5033471;28;20234;-75
2021/12/13 09:12:10;;;;;;;43.58;3.53;;;;;;;;;;5026383;28;20176;-75
2021/12/13 09:14:42;;;;;;;43.70;3.80;;;;;;;;;;5032390;28;20541;-75
2021/12/13 09:17:21;;;;;;;46.22;2.85;;;11.00;58.20;;;;;;5025988;28;20172;-75
2021/12/13 09:19:47;;;;;;;46.78;3.78;;;;;;;;;;5033616;28;20221;-75
2021/12/13 09:22:21;;;;;;;46.03;3.17;;;;;;;;;;5033574;28;20171;-75
2021/12/13 09:24:47;;;;;;;48.28;3.03;;;;;;;;;;5031143;28;21000;-75
2021/12/13 09:27:36;;;;;;;47.83;3.27;;;10.90;59.90;;;;;;5033487;28;20267;-75
2021/12/13 09:30:11;;;;;;;38.47;2.90;;;11.10;58.30;;;;;;5033156;28;20464;-79
2021/12/13 09:33:12;;;;;;;57.40;3.85;;;10.80;59.80;;;;;;5029575;28;20233;-75
2021/12/13 09:35:49;;;;;;;52.10;3.17;;;;;;;;;;5027368;28;20195;-75
2021/12/13 09:38:17;;;;;;;73.47;3.40;;;11.00;59.60;;;;;;5025977;28;20199;-75
2021/12/13 09:40:46;;;;;;;42.50;2.88;;;11.10;58.40;;;;;;5033319;28;20184;-75
2021/12/13 09:43:12;;;;;;;64.63;3.88;;;11.10;58.20;;;;;;5033350;28;20173;-76
2021/12/13 09:45:42;;;;;;;69.73;4.20;;;;;;;;;;5033010;28;20230;-76
2021/12/13 09:48:15;;;;;;;38.45;2.55;;;;;;;;;;5032334;28;20191;-76
2021/12/13 09:50:42;;;;;;;45.90;3.53;;;;;;;;;;5032112;28;20184;-75
2021/12/13 09:53:09;;;;;;;48.90;2.78;;;10.90;59.70;;;;;;5033075;28;20190;-74
2021/12/13 09:55:41;;;;;;;29.83;3.25;;;11.00;58.50;;;;;;5032911;28;20188;-75
2021/12/13 09:58:10;;;;;;;67.37;3.77;;;;;;;;;;5032607;28;20724;-75
2021/12/13 10:00:44;;;;;;;58.17;3.70;;;;;;;;;;5032862;28;20439;-75
2021/12/13 10:03:12;;;;;;;87.47;4.00;;;;;;;;;;5032898;28;20183;-76
2021/12/13 10:05:42;;;;;;;39.05;2.83;;;11.30;57.90;;;;;;5032739;28;20270;-75
2021/12/13 10:08:16;;;;;;;49.28;2.90;;;11.40;57.10;;;;;;5032480;28;20180;-76
2021/12/13 10:10:57;;;;;;;27.30;2.47;;;;;;;;;;5032914;28;20191;-76
2021/12/13 10:13:29;;;;;;;66.75;3.38;;;;;;;;;;5016348;28;20173;-76
2021/12/13 10:15:59;;;;;;;43.90;2.55;;;11.90;55.40;;;;;;5028238;28;20200;-75
2021/12/13 10:18:32;;;;;;;55.72;3.22;;;;;;;;;;5030894;28;20201;-76
2021/12/13 10:21:00;;;;;;;30.40;2.28;;;;;;;;;;5031891;28;20693;-75
2021/12/13 10:23:29;;;;;;;56.50;3.92;;;;;;;;;;5023783;28;20624;-75
2021/12/13 10:25:57;;;;;;;63.25;3.30;;;;;;;;;;5031866;28;20183;-75
2021/12/13 10:28:27;;;;;;;44.27;2.70;;;;;;;;;;5031778;28;20263;-75
2021/12/13 10:30:59;;;;;;;36.95;2.45;;;12.10;55.40;;;;;;5032417;28;20833;-75
2021/12/13 10:33:26;;;;;;;48.38;3.17;;;;;;;;;;5032340;28;20188;-76
2021/12/13 10:35:54;;;;;;;43.73;3.90;;;;;;;;;;5031430;28;20264;-75
2021/12/13 10:38:31;;;;;;;59.47;3.30;;;;;;;;;;5031481;28;20452;-75
2021/12/13 10:40:59;;;;;;;78.38;4.10;;;;;;;;;;5027098;28;20423;-75
2021/12/13 10:43:30;;;;;;;76.93;4.80;;;;;;;;;;5031257;28;20193;-75
2021/12/13 10:45:58;;;;;;;67.00;3.70;;;;;;;;;;5031266;28;20419;-75
2021/12/13 10:48:29;;;;;;;57.38;3.70;;;11.80;56.70;;;;;;5031742;28;20192;-75
2021/12/13 10:51:17;;;;;;;64.30;3.45;;;;;;;;;;5031759;28;20664;-75
2021/12/13 10:53:44;;;;;;;91.50;4.17;;;;;;;;;;5025438;28;20628;-75
2021/12/13 10:56:12;;;;;;;119.23;5.90;;;;;;;;;;5031372;28;20415;-75
2021/12/13 10:58:42;;;;;;;35.90;2.97;;;;;;;;;;5030569;28;20532;-76
2021/12/13 11:01:10;;;;;;;65.47;3.57;;;;;;;;;;5031330;28;20533;-76
2021/12/13 11:03:37;;;;;;;52.33;3.33;;;12.70;52.80;;;;;;5030446;28;20420;-76
2021/12/13 11:06:04;;;;;;;127.77;6.47;;;12.70;52.40;;;;;;5031505;28;20522;-76
2021/12/13 11:08:31;;;;;;;66.63;5.23;;;12.80;53.60;;;;;;5031564;28;20482;-76
2021/12/13 11:11:10;;;;;;;45.73;3.47;;;;;;;;;;5031777;28;20817;-76
2021/12/13 11:13:38;;;;;;;50.87;3.00;;;;;;;;;;5031419;28;20423;-76
2021/12/13 11:16:30;;;;;;;68.43;4.67;;;13.00;52.20;;;;;;5025872;28;20823;-76
2021/12/13 11:18:56;;;;;;;56.23;3.30;;;;;;;;;;5031168;28;20517;-76
2021/12/13 11:21:29;;;;;;;64.00;3.53;;;12.80;51.00;;;;;;5030225;28;20423;-76
2021/12/13 11:23:56;;;;;;;102.80;5.07;;;;;;;;;;5026722;28;20440;-78
2021/12/13 11:26:32;;;;;;;42.83;2.77;;;13.00;52.10;;;;;;5035949;28;20426;-72
2021/12/13 11:29:00;;;;;;;74.67;3.97;;;13.10;52.20;;;;;;5031487;28;20461;-72
2021/12/13 11:31:29;;;;;;;46.60;3.00;;;;;;;;;;5035877;28;20927;-72
2021/12/13 11:34:01;;;;;;;47.97;3.53;;;;;;;;;;5031523;28;20950;-73
2021/12/13 11:37:01;;;;;;;59.47;4.07;;;13.10;50.90;;;;;;5031093;28;20506;-72
2021/12/13 11:39:42;;;;;;;60.90;3.50;;;;;;;;;;5029362;28;20970;-73
2021/12/13 11:42:22;;;;;;;42.23;3.67;;;13.30;51.00;;;;;;5031289;28;20919;-73
2021/12/13 11:44:57;;;;;;;41.40;2.70;;;;;;;;;;5031086;28;20784;-73
2021/12/13 11:47:35;;;;;;;50.57;3.07;;;;;;;;;;5030632;28;20420;-72
2021/12/13 11:50:40;;;;;;;38.60;3.20;;;13.60;48.40;;;;;;5026733;28;20949;-73
2021/12/13 11:53:42;;;;;;;56.30;4.10;;;13.30;49.50;;;;;;5026515;28;20925;-73
2021/12/13 11:56:27;;;;;;;107.20;4.93;;;;;;;;;;5030446;28;20836;-73
2021/12/13 11:59:12;;;;;;;62.10;3.60;;;;;;;;;;5026877;28;20471;-73
2021/12/13 12:01:48;;;;;;;38.77;2.70;;;;;;;;;;5026625;28;20422;-73
2021/12/13 12:04:45;;;;;;;58.47;3.77;;;13.80;48.10;;;;;;5030470;28;20426;-73
2021/12/13 12:07:14;;;;;;;46.03;3.30;;;;;;;;;;5030258;28;20428;-73
2021/12/13 12:10:06;;;;;;;56.27;3.40;;;;;;;;;;5030815;28;20447;-73
2021/12/13 12:13:09;;;;;;;42.07;3.13;;;13.70;47.90;;;;;;5029804;28;20450;-73
2021/12/13 12:15:36;;;;;;;66.13;4.50;;;;;;;;;;5022444;28;20432;-73
2021/12/13 12:18:05;;;;;;;55.50;3.27;;;;;;;;;;5030290;28;20460;-73
2021/12/13 12:20:34;;;;;;;58.07;3.70;;;13.00;52.60;;;;;;5030553;28;20448;-73
2021/12/13 12:23:05;;;;;;;45.90;3.70;;;;;;;;;;5030170;28;20469;-73
2021/12/13 12:25:34;;;;;;;31.97;2.77;;;;;;;;;;5030430;28;20486;-73
2021/12/13 12:28:08;;;;;;;39.23;3.17;;;;;;;;;;5030528;28;20429;-73
2021/12/13 12:30:39;;;;;;;60.27;3.63;;;;;;;;;;5030411;28;20454;-74
2021/12/13 12:33:07;;;;;;;47.93;3.33;;;;;;;;;;5030473;28;20419;-73
2021/12/13 12:35:42;;;;;;;38.10;3.30;;;;;;;;;;5030027;28;20423;-72
2021/12/13 12:38:11;;;;;;;41.73;3.00;;;;;;;;;;5030270;28;20501;-72
2021/12/13 12:40:39;;;;;;;27.50;2.60;;;;;;;;;;5031101;28;20423;-72
2021/12/13 12:43:13;;;;;;;38.67;3.47;;;;;;;;;;5034242;28;20942;-73
2021/12/13 12:45:44;;;;;;;49.17;3.60;;;;;;;;;;5033519;28;20423;-75
2021/12/13 12:48:13;;;;;;;47.07;3.50;;;;;;;;;;5033076;28;20816;-72
2021/12/13 12:50:49;;;;;;;34.00;3.00;;;13.70;48.90;;;;;;5033098;28;20438;-72
2021/12/13 12:53:23;;;;;;;58.53;3.60;;;13.70;50.10;;;;;;5033619;28;20861;-72
2021/12/13 12:55:52;;;;;;;50.70;4.00;;;;;;;;;;5034459;28;20826;-73
2021/12/13 12:58:37;;;;;;;41.10;3.33;;;13.60;50.80;;;;;;5034104;28;20958;-73
2021/12/13 13:01:05;;;;;;;44.03;3.40;;;;;;;;;;5033945;28;20436;-72
2021/12/13 13:03:34;;;;;;;34.27;3.43;;;13.90;48.90;;;;;;5033825;28;20427;-73
2021/12/13 13:06:06;;;;;;;72.07;3.93;;;;;;;;;;5033857;28;20519;-73
2021/12/13 13:08:35;;;;;;;33.57;2.57;;;13.80;48.60;;;;;;5034490;28;20427;-75
2021/12/13 13:13:48;;;;;;;46.37;3.40;;;;;;;;;;5034427;28;20449;-73
2021/12/13 13:16:16;;;;;;;112.03;5.63;;;;;;;;;;5033855;28;20411;-73
2021/12/13 13:18:42;;;;;;;41.20;2.93;;;;;;;;;;5028125;28;20495;-74
2021/12/13 13:21:09;;;;;;;40.67;2.60;;;13.40;50.60;;;;;;5034194;28;20407;-74
2021/12/13 13:23:44;;;;;;;38.33;3.43;;;;;;;;;;5033905;28;20431;-73
2021/12/13 13:26:10;;;;;;;111.50;4.83;;;;;;;;;;5033998;28;20425;-73
2021/12/13 13:28:46;;;;;;;36.67;3.10;;;13.70;48.20;;;;;;5033498;28;20452;-73
2021/12/13 13:31:15;;;;;;;34.20;2.57;;;;;;;;;;5033763;28;20513;-73
2021/12/13 13:33:43;;;;;;;44.93;3.13;;;;;;;;;;5033621;28;20851;-73
2021/12/13 13:36:10;;;;;;;85.37;4.33;;;;;;;;;;5033534;28;20427;-75
2021/12/13 13:38:38;;;;;;;48.47;2.87;;;14.00;47.90;;;;;;5032931;28;20604;-75
2021/12/13 13:41:07;;;;;;;73.73;4.07;;;;;;;;;;5031872;28;20442;-75
2021/12/13 13:43:36;;;;;;;55.17;3.53;;;;;;;;;;5025417;28;20431;-75
2021/12/13 13:46:03;;;;;;;139.50;6.03;;;;;;;;;;5032559;28;20427;-75
2021/12/13 13:48:31;;;;;;;67.50;3.73;;;;;;;;;;5029767;28;21086;-75
2021/12/13 13:51:17;;;;;;;73.07;4.17;;;13.30;51.00;;;;;;5013860;28;20947;-75
2021/12/13 13:53:53;;;;;;;45.37;2.83;;;;;;;;;;5012735;28;20880;-75
2021/12/13 13:56:33;;;;;;;53.00;3.60;;;;;;;;;;5013473;28;20392;-75
2021/12/13 13:59:08;;;;;;;42.77;2.77;;;13.00;52.40;;;;;;5013427;28;20486;-75
2021/12/13 14:01:34;;;;;;;39.00;2.97;;;;;;;;;;5028732;28;20419;-75
2021/12/13 14:04:05;;;;;;;37.20;3.07;;;;;;;;;;5033335;28;20494;-75
2021/12/13 14:06:35;;;;;;;32.27;2.80;;;;;;;;;;5033056;28;20422;-75
2021/12/13 14:09:05;;;;;;;51.13;3.60;;;;;;;;;;5033171;28;20803;-75
2021/12/13 14:11:41;;;;;;;29.53;2.63;;;;;;;;;;5033026;28;20407;-75
2021/12/13 14:14:07;;;;;;;28.87;2.77;;;;;;;;;;5033131;28;20475;-75
2021/12/13 14:16:33;;;;;;;35.10;3.17;;;;;;;;;;5032769;28;20549;-75
2021/12/13 14:18:59;;;;;;;46.13;3.13;;;;;;;;;;5032617;28;20557;-75
2021/12/13 14:21:28;;;;;;;35.00;3.00;;;;;;;;;;5032976;28;20541;-75